Time;durP1;ratioP1;P1;durP2;ratioP2;P2;SDS_P1;SDS_P2;PMS_P1;PMS_P2;Temp;Humidity;BMP_temperature;BMP_pressure;BME280_temperature;BME280_humidity;BME280_pressure;Samples;Min_cycle;Max_cycle;Signal;HPM_P1;HPM_P2
2021/12/08 00:00:30;;;;;;;74.80;38.87;;;;;;;;;;4984950;28;20431;-81
2021/12/08 00:02:56;;;;;;;84.23;40.47;;;;;;;;;;5002152;28;20808;-82
2021/12/08 00:05:23;;;;;;;93.37;41.23;;;;;;;;;;4987550;28;20435;-80
2021/12/08 00:07:50;;;;;;;88.97;41.80;;;;;;;;;;4983478;28;21311;-80
2021/12/08 00:13:03;;;;;;;79.90;39.13;;;;;;;;;;4981618;28;20428;-80
2021/12/08 00:15:33;;;;;;;75.93;38.73;;;;;;;;;;4985327;28;20514;-78
2021/12/08 00:18:00;;;;;;;74.80;39.03;;;;;;;;;;4980567;28;20430;-78
2021/12/08 00:20:29;;;;;;;73.90;38.37;;;;;;;;;;4979071;28;20412;-79
2021/12/08 00:22:55;;;;;;;80.00;38.80;;;;;;;;;;4982140;28;20515;-78
2021/12/08 00:25:21;;;;;;;78.53;40.43;;;;;;;;;;4996791;28;21034;-81
2021/12/08 00:27:47;;;;;;;75.07;38.53;;;;;;;;;;4996790;28;21040;-81
2021/12/08 00:30:15;;;;;;;75.73;38.23;;;;;;;;;;4976795;28;20425;-79
2021/12/08 00:32:41;;;;;;;71.00;38.93;;;;;;;;;;4981223;28;20424;-79
2021/12/08 00:35:07;;;;;;;69.97;38.10;;;;;;;;;;4981294;28;20570;-77
2021/12/08 00:37:33;;;;;;;68.27;36.73;;;;;;;;;;4980321;28;20456;-77
2021/12/08 00:40:00;;;;;;;67.17;37.80;;;;;;;;;;4995708;28;20427;-78
2021/12/08 00:42:29;;;;;;;75.67;38.80;;;;;;;;;;4978180;28;20459;-84
2021/12/08 00:44:55;;;;;;;65.60;35.57;;;;;;;;;;4996798;28;20558;-79
2021/12/08 00:47:21;;;;;;;69.13;37.23;;;;;;;;;;4977748;28;20431;-78
2021/12/08 00:49:47;;;;;;;65.07;36.97;;;;;;;;;;4993242;28;20559;-78
2021/12/08 00:52:14;;;;;;;67.97;36.47;;;;;;;;;;4979198;28;21348;-78
2021/12/08 00:54:40;;;;;;;70.87;38.10;;;;;;;;;;4975035;28;20429;-78
2021/12/08 00:57:07;;;;;;;69.00;39.13;;;;;;;;;;4978007;28;21527;-78
2021/12/08 00:59:33;;;;;;;69.03;38.17;;;;;;;;;;4979174;28;21200;-78
2021/12/08 01:02:02;;;;;;;70.03;38.33;;;;;;;;;;4979072;28;21308;-78
2021/12/08 01:04:32;;;;;;;70.17;38.80;;;;;;;;;;4982010;28;20421;-77
2021/12/08 01:06:59;;;;;;;66.37;37.07;;;;;;;;;;4993235;28;20772;-78
2021/12/08 01:09:25;;;;;;;62.60;33.13;;;;;;;;;;4977182;28;20504;-77
2021/12/08 01:11:51;;;;;;;64.27;36.93;;;;;;;;;;4976262;28;20440;-78
2021/12/08 01:14:18;;;;;;;65.13;35.27;;;;;;;;;;4976788;28;21365;-78
2021/12/08 01:16:47;;;;;;;58.90;35.13;;;;;;;;;;4976056;28;20464;-78
2021/12/08 01:19:13;;;;;;;62.83;36.27;;;;;;;;;;5006463;28;21346;-78
2021/12/08 01:21:39;;;;;;;59.87;34.30;;;;;;;;;;4984859;28;20488;-78
2021/12/08 01:24:05;;;;;;;66.93;37.63;;;;;;;;;;4991836;28;20427;-78
2021/12/08 01:26:31;;;;;;;65.60;36.07;;;;;;;;;;4976945;28;20420;-77
2021/12/08 01:28:57;;;;;;;67.50;37.23;;;;;;;;;;4973346;28;20944;-78
2021/12/08 01:31:24;;;;;;;63.67;35.87;;;;;;;;;;4974621;28;20435;-78
2021/12/08 01:33:51;;;;;;;60.87;33.53;;;;;;;;;;4991670;28;20433;-78
2021/12/08 01:36:18;;;;;;;55.63;32.60;;;;;;;;;;4974071;28;20469;-77
2021/12/08 01:38:44;;;;;;;55.93;32.67;;;;;;;;;;4974909;28;20449;-78
2021/12/08 01:41:10;;;;;;;60.03;33.37;;;;;;;;;;4977289;28;20514;-78
2021/12/08 01:45:56;;;;;;;57.87;33.47;;;;;;;;;;4979102;28;20428;-78
2021/12/08 01:46:26;;;;;;;53.63;30.87;;;;;;;;;;4978657;28;20409;-77
2021/12/08 01:48:52;;;;;;;55.50;30.80;;;;;;;;;;4978482;28;21379;-77
2021/12/08 01:51:18;;;;;;;56.40;31.00;;;;;;;;;;4977728;28;20516;-78
2021/12/08 01:53:47;;;;;;;57.00;34.43;;;;;;;;;;4990201;28;20423;-78
2021/12/08 01:56:14;;;;;;;60.97;34.10;;;;;;;;;;4978227;28;21151;-78
2021/12/08 01:58:40;;;;;;;56.10;32.57;;;;;;;;;;4992613;28;20464;-77
2021/12/08 02:01:09;;;;;;;57.63;33.33;;;;;;;;;;4978921;28;21243;-77
2021/12/08 02:03:36;;;;;;;60.87;34.03;;;;;;;;;;4988136;28;20416;-77
2021/12/08 02:06:05;;;;;;;56.00;32.03;;;;;;;;;;4986475;28;20443;-77
2021/12/08 02:08:31;;;;;;;60.57;34.10;;;;;;;;;;4973599;28;21261;-77
2021/12/08 02:10:59;;;;;;;52.10;31.40;;;;;;;;;;4976424;28;20435;-77
2021/12/08 02:13:27;;;;;;;55.57;32.17;;;;;;;;;;4990142;28;21561;-77
2021/12/08 02:15:54;;;;;;;55.27;31.23;;;;;;;;;;4993200;28;21475;-77
2021/12/08 02:18:20;;;;;;;56.23;31.57;;;;;;;;;;4976795;28;20431;-77
2021/12/08 02:20:47;;;;;;;59.13;34.27;;;;;;;;;;5008344;28;20416;-77
2021/12/08 02:23:13;;;;;;;52.07;32.00;;;;;;;;;;4974560;28;21278;-77
2021/12/08 02:25:39;;;;;;;69.13;35.90;;;;;;;;;;4973063;28;21192;-77
2021/12/08 02:28:08;;;;;;;58.23;33.97;;;;;;;;;;4975188;28;20566;-77
2021/12/08 02:30:40;;;;;;;60.67;34.03;;;;;;;;;;4977195;28;20436;-78
2021/12/08 02:47:06;;;;;;;58.17;33.50;;;;;;;;;;4980881;28;20472;-77
2021/12/08 02:49:33;;;;;;;58.47;32.43;;;;;;;;;;4994300;28;20438;-77
2021/12/08 02:51:59;;;;;;;53.50;32.80;;;;;;;;;;4979966;28;20527;-77
2021/12/08 02:54:25;;;;;;;55.33;31.50;;;;;;;;;;4976831;28;21380;-77
2021/12/08 02:56:54;;;;;;;49.40;30.23;;;;;;;;;;4981654;28;21169;-77
2021/12/08 02:59:20;;;;;;;56.30;30.90;;;;;;;;;;4977674;28;20450;-77
2021/12/08 03:01:46;;;;;;;57.93;32.57;;;;;;;;;;4991401;28;20450;-77
2021/12/08 03:04:12;;;;;;;58.17;31.53;;;;;;;;;;4979456;28;20425;-77
2021/12/08 03:06:38;;;;;;;56.33;33.13;;;;;;;;;;4993314;28;20433;-77
2021/12/08 03:09:05;;;;;;;58.40;34.40;;;;;;;;;;4979140;28;20516;-77
2021/12/08 03:11:31;;;;;;;58.80;32.67;;;;;;;;;;5010598;28;20436;-78
2021/12/08 03:14:10;;;;;;;55.73;32.27;;;;;;;;;;4977253;28;21298;-77
2021/12/08 03:16:39;;;;;;;55.57;33.43;;;;;;;;;;4991933;28;20455;-77
2021/12/08 03:19:05;;;;;;;55.90;31.00;;;;;;;;;;4979014;28;20420;-77
2021/12/08 03:21:32;;;;;;;56.07;31.87;;;;;;;;;;4977548;28;20467;-77
2021/12/08 03:29:53;;;;;;;55.17;30.70;;;;;;;;;;4960049;28;20532;-77
2021/12/08 03:32:31;;;;;;;60.47;33.73;;;;;;;;;;4958417;28;20429;-77
2021/12/08 03:34:57;;;;;;;58.40;33.83;;;;;;;;;;4969094;28;20665;-77
2021/12/08 03:37:28;;;;;;;51.13;31.13;;;;;;;;;;4996232;28;20408;-77
2021/12/08 03:39:55;;;;;;;56.07;32.20;;;;;;;;;;4997441;28;21203;-77
2021/12/08 03:42:23;;;;;;;56.60;33.50;;;;;;;;;;4981227;28;20409;-77
2021/12/08 03:44:50;;;;;;;53.87;31.53;;;;;;;;;;4979391;28;21383;-77
2021/12/08 03:47:18;;;;;;;56.03;32.43;;;;;;;;;;4978435;28;20468;-77
2021/12/08 03:49:46;;;;;;;57.47;34.63;;;;;;;;;;4978663;28;20531;-77
2021/12/08 03:52:13;;;;;;;56.00;32.43;;;;;;;;;;4993715;28;21357;-77
2021/12/08 03:54:39;;;;;;;58.03;33.43;;;;;;;;;;4993235;28;20413;-78
2021/12/08 03:57:05;;;;;;;60.37;33.07;;;;;;;;;;4978120;28;20547;-77
2021/12/08 03:59:32;;;;;;;53.53;31.00;;;;;;;;;;4979751;28;20491;-77
2021/12/08 04:01:58;;;;;;;52.77;30.97;;;;;;;;;;4987640;28;20432;-77
2021/12/08 04:04:27;;;;;;;57.70;33.43;;;;;;;;;;4975731;28;20421;-77
2021/12/08 04:06:55;;;;;;;52.57;32.37;;;;;;;;;;4976000;28;20420;-77
2021/12/08 04:09:30;;;;;;;58.47;33.40;;;;;;;;;;4977835;28;20417;-77
2021/12/08 04:11:57;;;;;;;57.87;32.70;;;;;;;;;;4977026;28;20427;-77
2021/12/08 04:14:25;;;;;;;55.20;32.07;;;;;;;;;;4978902;28;20405;-77
2021/12/08 04:16:53;;;;;;;56.20;31.57;;;;;;;;;;5011824;28;20845;-77
2021/12/08 04:19:19;;;;;;;60.57;32.87;;;;;;;;;;4995387;28;21292;-77
2021/12/08 04:21:47;;;;;;;54.70;31.77;;;;;;;;;;5010568;28;20409;-77
2021/12/08 04:24:14;;;;;;;62.43;33.93;;;;;;;;;;4991137;28;20891;-77
2021/12/08 04:26:52;;;;;;;55.50;31.13;;;;;;;;;;4975736;28;20797;-77
2021/12/08 04:29:20;;;;;;;53.27;32.87;;;;;;;;;;4976931;28;20468;-77
2021/12/08 04:31:49;;;;;;;52.43;31.10;;;;;;;;;;4979309;28;20920;-77
2021/12/08 04:34:18;;;;;;;54.40;30.73;;;;;;;;;;4990754;28;20539;-77
2021/12/08 04:36:47;;;;;;;52.73;30.97;;;;;;;;;;4992460;28;21247;-77
2021/12/08 04:39:18;;;;;;;55.47;31.20;;;;;;;;;;4976831;28;20488;-77
2021/12/08 04:41:50;;;;;;;59.60;33.13;;;;;;;;;;4975628;28;20426;-77
2021/12/08 04:50:06;;;;;;;49.87;30.10;;;;;;;;;;4975752;28;20526;-77
2021/12/08 04:52:36;;;;;;;52.77;28.57;;;;;;;;;;4978742;28;20408;-77
2021/12/08 05:01:58;;;;;;;43.90;26.23;;;;;;;;;;4978517;28;20460;-77
2021/12/08 05:06:41;;;;;;;41.53;26.10;;;;;;;;;;4981059;28;20427;-77
2021/12/08 05:09:16;;;;;;;48.17;28.40;;;;;;;;;;4977509;28;20438;-77
2021/12/08 05:11:45;;;;;;;45.17;25.93;;;;;;;;;;4994941;28;20497;-77
2021/12/08 05:14:20;;;;;;;48.13;26.30;;;;;;;;;;4995916;28;20502;-77
2021/12/08 05:16:47;;;;;;;43.43;24.53;;;;;;;;;;4976116;28;20514;-77
2021/12/08 05:19:15;;;;;;;42.83;25.67;;;;;;;;;;4991063;28;21389;-77
2021/12/08 05:21:41;;;;;;;41.30;24.67;;;;;;;;;;5010244;28;20418;-77
2021/12/08 05:24:15;;;;;;;46.70;25.17;;;;;;;;;;4977923;28;20430;-77
2021/12/08 05:26:43;;;;;;;43.03;23.00;;;;;;;;;;4976056;28;20536;-77
2021/12/08 05:29:15;;;;;;;37.30;22.70;;;;;;;;;;4990703;28;21175;-77
2021/12/08 05:31:41;;;;;;;35.30;22.33;;;;;;;;;;4989905;28;20428;-77
2021/12/08 05:34:07;;;;;;;42.10;23.27;;;;;;;;;;4978738;28;20434;-77
2021/12/08 05:36:34;;;;;;;37.43;22.57;;;;;;;;;;4991557;28;20456;-77
2021/12/08 05:39:01;;;;;;;42.20;25.60;;;;;;;;;;5004119;28;20453;-77
2021/12/08 05:41:30;;;;;;;42.63;25.73;;;;;;;;;;4973751;28;20452;-77
2021/12/08 05:43:57;;;;;;;44.67;26.40;;;;;;;;;;4992756;28;20602;-77
2021/12/08 05:46:24;;;;;;;42.87;25.60;;;;;;;;;;4974421;28;20440;-77
2021/12/08 05:48:51;;;;;;;46.80;27.47;;;;;;;;;;4975585;28;20430;-77
2021/12/08 05:51:23;;;;;;;41.60;26.87;;;;;;;;;;4973293;28;20428;-77
2021/12/08 05:53:51;;;;;;;48.47;29.20;;;;;;;;;;4974503;28;20428;-77
2021/12/08 05:56:19;;;;;;;47.17;28.03;;;;;;;;;;4976750;28;20464;-77
2021/12/08 05:58:46;;;;;;;44.87;27.47;;;;;;;;;;4994278;28;20492;-77
2021/12/08 06:01:12;;;;;;;49.40;29.33;;;;;;;;;;4975949;28;20421;-78
2021/12/08 06:03:39;;;;;;;52.67;29.93;;;;;;;;;;4992306;28;20432;-78
2021/12/08 06:06:06;;;;;;;53.27;30.17;;;;;;;;;;4974407;28;21207;-78
2021/12/08 06:08:32;;;;;;;52.77;31.70;;;;;;;;;;4992001;28;20421;-78
2021/12/08 06:10:59;;;;;;;55.60;33.33;;;;;;;;;;4979192;28;20431;-77
2021/12/08 06:13:26;;;;;;;50.43;30.60;;;;;;;;;;4979729;28;20539;-78
2021/12/08 06:15:53;;;;;;;49.30;31.60;;;;;;;;;;4980631;28;20642;-78
2021/12/08 06:18:22;;;;;;;56.97;33.27;;;;;;;;;;4985193;28;20538;-78
2021/12/08 06:20:49;;;;;;;52.53;30.93;;;;;;;;;;5008314;28;20532;-77
2021/12/08 06:23:15;;;;;;;53.17;32.90;;;;;;;;;;4992892;28;21309;-77
2021/12/08 06:25:41;;;;;;;52.13;31.70;;;;;;;;;;4977403;28;20428;-78
2021/12/08 06:28:08;;;;;;;53.63;30.80;;;;;;;;;;4995394;28;20519;-78
2021/12/08 06:30:35;;;;;;;52.97;31.37;;;;;;;;;;4980436;28;20996;-78
2021/12/08 06:33:01;;;;;;;51.10;31.67;;;;;;;;;;4982574;28;21300;-78
2021/12/08 06:35:30;;;;;;;54.13;32.50;;;;;;;;;;4982339;28;20491;-78
2021/12/08 06:37:56;;;;;;;54.37;33.43;;;;;;;;;;4978788;28;20416;-78
2021/12/08 06:40:29;;;;;;;59.40;34.50;;;;;;;;;;4960946;28;20417;-78
2021/12/08 06:42:57;;;;;;;58.27;35.20;;;;;;;;;;4980024;28;21390;-78
2021/12/08 06:45:25;;;;;;;52.93;33.73;;;;;;;;;;4980325;28;21318;-78
2021/12/08 06:47:52;;;;;;;54.10;33.30;;;;;;;;;;4979231;28;20461;-78
2021/12/08 06:50:24;;;;;;;61.90;36.63;;;;;;;;;;4980386;28;20475;-78
2021/12/08 06:52:50;;;;;;;50.83;32.53;;;;;;;;;;4996580;28;20413;-78
2021/12/08 06:55:22;;;;;;;58.63;35.60;;;;;;;;;;4982122;28;20567;-78
2021/12/08 06:57:50;;;;;;;53.03;32.60;;;;;;;;;;4993203;28;21420;-78
2021/12/08 07:00:49;;;;;;;59.27;34.60;;;;;;;;;;4977444;28;20405;-78
2021/12/08 07:08:21;;;;;;;53.83;34.20;;;;;;;;;;4979412;28;20455;-78
2021/12/08 07:10:48;;;;;;;57.53;34.83;;;;;;;;;;4971498;28;20431;-78
2021/12/08 07:13:21;;;;;;;53.40;33.93;;;;;;;;;;4994530;28;20495;-78
2021/12/08 07:15:54;;;;;;;59.27;35.77;;;;;;;;;;4976021;28;21303;-78
2021/12/08 07:18:25;;;;;;;53.43;34.20;;;;;;;;;;4978094;28;20425;-78
2021/12/08 07:20:53;;;;;;;57.63;35.83;;;;;;;;;;4990937;28;20424;-78
2021/12/08 07:23:24;;;;;;;50.77;32.77;;;;;;;;;;4996777;28;20432;-78
2021/12/08 07:25:52;;;;;;;54.97;34.73;;;;;;;;;;4976766;28;20453;-78
2021/12/08 07:28:19;;;;;;;55.77;32.77;;;;;;;;;;4977679;28;20543;-78
2021/12/08 07:30:51;;;;;;;52.77;33.83;;;;;;;;;;4994277;28;20492;-78
2021/12/08 07:33:17;;;;;;;52.63;33.63;;;;;;;;;;4995341;28;20420;-78
2021/12/08 07:35:49;;;;;;;53.53;34.43;;;;;;;;;;4996596;28;20528;-78
2021/12/08 07:38:18;;;;;;;53.93;31.97;;;;;;;;;;4980495;28;20412;-78
2021/12/08 07:40:54;;;;;;;50.73;33.13;;;;;;;;;;4981109;28;20417;-78
2021/12/08 07:43:22;;;;;;;50.13;31.47;;;;;;;;;;4978863;28;20412;-78
2021/12/08 07:45:50;;;;;;;47.90;31.00;;;;;;;;;;4980639;28;20451;-78
2021/12/08 07:48:19;;;;;;;52.17;33.13;;;;;;;;;;4995038;28;20451;-77
2021/12/08 07:50:52;;;;;;;55.07;34.07;;;;;;;;;;4978082;28;20543;-78
2021/12/08 07:53:19;;;;;;;49.90;31.97;;;;;;;;;;4978006;28;20490;-78
2021/12/08 07:55:47;;;;;;;50.43;31.87;;;;;;;;;;5012326;28;20523;-78
2021/12/08 07:58:15;;;;;;;51.87;33.60;;;;;;;;;;4978656;28;20424;-78
2021/12/08 08:00:47;;;;;;;53.00;32.73;;;;;;;;;;4993566;28;21164;-78
2021/12/08 08:03:14;;;;;;;52.40;32.77;;;;;;;;;;4976235;28;20813;-77
2021/12/08 08:05:41;;;;;;;50.00;31.00;;;;;;;;;;4990041;28;20440;-77
2021/12/08 08:08:13;;;;;;;51.17;31.10;;;;;;;;;;4993545;28;21078;-77
2021/12/08 08:10:42;;;;;;;52.10;32.27;;;;;;;;;;4980098;28;20455;-77
2021/12/08 08:13:09;;;;;;;52.90;32.33;;;;;;;;;;4980210;28;20431;-77
2021/12/08 08:15:38;;;;;;;49.67;32.00;;;;;;;;;;5008286;28;20452;-77
2021/12/08 08:18:08;;;;;;;53.33;34.07;;;;;;;;;;5009793;28;21286;-77
2021/12/08 08:20:36;;;;;;;56.13;32.00;;;;;;;;;;4978378;28;20435;-77
2021/12/08 08:23:03;;;;;;;53.97;32.13;;;;;;;;;;4995139;28;20536;-77
2021/12/08 08:25:37;;;;;;;56.23;33.40;;;;;;;;;;4990850;28;20428;-77
2021/12/08 08:28:04;;;;;;;53.23;31.50;;;;;;;;;;4978134;28;20462;-77
2021/12/08 08:30:32;;;;;;;49.23;31.70;;;;;;;;;;4978750;28;20420;-77
2021/12/08 08:32:59;;;;;;;52.90;31.97;;;;;;;;;;4995155;28;20429;-78
2021/12/08 08:35:30;;;;;;;49.43;31.20;;;;;;;;;;4978132;28;20456;-78
2021/12/08 08:37:58;;;;;;;47.27;30.67;;;;;;;;;;4977730;28;20429;-77
2021/12/08 08:40:35;;;;;;;51.13;30.70;;;;;;;;;;4991410;28;20542;-78
2021/12/08 08:43:01;;;;;;;47.00;29.43;;;;;;;;;;4973622;28;20528;-77
2021/12/08 08:45:42;;;;;;;43.13;27.80;;;;;;;;;;4977719;28;20432;-77
2021/12/08 08:48:16;;;;;;;49.73;29.60;;;;;;;;;;4972325;28;21961;-78
2021/12/08 08:50:49;;;;;;;48.03;30.57;;;;;;;;;;4974582;28;21401;-78
2021/12/08 08:53:17;;;;;;;47.83;29.23;;;;;;;;;;4976310;28;20416;-78
2021/12/08 08:55:48;;;;;;;48.93;29.67;;;;;;;;;;4992194;28;20456;-78
2021/12/08 08:58:15;;;;;;;47.60;28.67;;;;;;;;;;4972591;28;21197;-78
2021/12/08 09:00:44;;;;;;;44.73;27.83;;;;;;;;;;4992987;28;20451;-78
2021/12/08 09:03:12;;;;;;;42.97;27.70;;;;;;;;;;4974332;28;20477;-78
2021/12/08 09:05:44;;;;;;;44.57;27.20;;;;;;;;;;4989246;28;20416;-78
2021/12/08 09:08:10;;;;;;;46.33;27.77;;;;;;;;;;5009003;28;20444;-78
2021/12/08 09:10:57;;;;;;;49.37;28.30;;;;;;;;;;4978831;28;21426;-78
2021/12/08 09:13:27;;;;;;;42.67;27.47;;;;;;;;;;4978530;28;20459;-77
2021/12/08 09:15:58;;;;;;;43.43;26.73;;;;;;;;;;4972995;28;20522;-77
2021/12/08 09:18:42;;;;;;;42.83;26.53;;;;;;;;;;5005324;28;21203;-77
2021/12/08 09:21:16;;;;;;;40.90;26.00;;;;;;;;;;4992009;28;20419;-76
2021/12/08 09:23:46;;;;;;;41.17;23.90;;;;;;;;;;4979230;28;20405;-77
2021/12/08 09:26:14;;;;;;;39.90;24.17;;;;;;;;;;5010812;28;21305;-77
2021/12/08 09:28:49;;;;;;;37.13;23.30;;;;;;;;;;4965665;28;20424;-77
2021/12/08 09:31:31;;;;;;;36.13;24.27;;;;;;;;;;5008674;28;20420;-77
2021/12/08 09:34:14;;;;;;;36.13;22.77;;;;;;;;;;4993644;28;20435;-77
2021/12/08 09:36:46;;;;;;;37.20;22.63;;;;;;;;;;4991946;28;20452;-77
2021/12/08 09:39:15;;;;;;;37.30;22.73;;;;;;;;;;4978431;28;20424;-77
2021/12/08 09:41:47;;;;;;;40.33;25.10;;;;;;;;;;4994717;28;20428;-76
2021/12/08 09:44:17;;;;;;;35.53;24.07;;;;;;;;;;4976298;28;20412;-77
2021/12/08 09:46:45;;;;;;;31.50;22.13;;;;;;;;;;5004933;28;20439;-77
2021/12/08 09:49:12;;;;;;;34.80;23.47;;;;;;;;;;4976230;28;20417;-79
2021/12/08 09:51:42;;;;;;;35.83;21.50;;;;;;;;;;4981738;28;20534;-78
2021/12/08 09:54:08;;;;;;;34.43;22.40;;;;;;;;;;4977969;28;21239;-78
2021/12/08 09:56:34;;;;;;;37.17;23.83;;;;;;;;;;4993430;28;20447;-77
2021/12/08 09:59:03;;;;;;;33.50;21.50;;;;;;;;;;4989823;28;20416;-77
2021/12/08 10:01:29;;;;;;;32.00;21.23;;;;;;;;;;4992025;28;20408;-76
2021/12/08 10:03:56;;;;;;;36.40;22.50;;;;;;;;;;5008314;28;20427;-78
2021/12/08 10:06:24;;;;;;;35.53;22.73;;;;;;;;;;4980907;28;22339;-77
2021/12/08 10:08:51;;;;;;;31.97;20.47;;;;;;;;;;4976041;28;21145;-77
2021/12/08 10:11:18;;;;;;;33.53;21.73;;;;;;;;;;4991833;28;20432;-78
2021/12/08 10:13:45;;;;;;;33.83;21.37;;;;;;;;;;4977356;28;21450;-77
2021/12/08 10:16:12;;;;;;;29.53;19.77;;;;;;;;;;4990069;28;20444;-77
2021/12/08 10:18:39;;;;;;;31.17;21.30;;;;;;;;;;4977763;28;20531;-77
2021/12/08 10:21:05;;;;;;;30.67;19.43;;;;;;;;;;4992439;28;20422;-77
2021/12/08 10:23:33;;;;;;;31.30;20.00;;;;;;;;;;4976445;28;21003;-77
2021/12/08 10:26:02;;;;;;;31.03;21.90;;;;;;;;;;4993665;28;20478;-77
2021/12/08 10:28:30;;;;;;;29.93;19.83;;;;;;;;;;4991665;28;21377;-78
2021/12/08 10:31:14;;;;;;;29.93;19.60;;;;;;;;;;4977538;28;20425;-78
2021/12/08 10:36:34;;;;;;;31.20;19.93;;;;;;;;;;4977509;28;20460;-78
2021/12/08 10:39:09;;;;;;;30.93;20.57;;;;;;;;;;4990456;28;20425;-78
2021/12/08 10:41:46;;;;;;;31.83;21.47;;;;;;;;;;4980456;28;20428;-78
2021/12/08 10:44:12;;;;;;;34.20;21.97;;;;;;;;;;4977224;28;20428;-78
2021/12/08 10:46:38;;;;;;;37.50;23.13;;;;;;;;;;4991765;28;21349;-78
2021/12/08 10:54:25;;;;;;;35.43;22.67;;;;;;;;;;4980262;28;21002;-78
2021/12/08 10:54:59;;;;;;;33.43;23.10;;;;;;;;;;4976495;28;21251;-78
2021/12/08 10:57:30;;;;;;;33.77;23.50;;;;;;;;;;4975880;28;21254;-78
2021/12/08 11:00:00;;;;;;;33.17;21.97;;;;;;;;;;4977377;28;21394;-79
2021/12/08 11:02:36;;;;;;;39.60;25.43;;;;;;;;;;4995686;28;20427;-78
2021/12/08 11:05:03;;;;;;;42.13;29.37;;;;;;;;;;4988496;28;21185;-78
2021/12/08 11:07:29;;;;;;;35.93;23.67;;;;;;;;;;4989470;28;21231;-79
2021/12/08 11:09:56;;;;;;;32.57;22.43;;;;;;;;;;4985872;28;20434;-79
2021/12/08 11:12:22;;;;;;;32.13;21.97;;;;;;;;;;4991123;28;20421;-78
2021/12/08 11:14:49;;;;;;;33.43;20.57;;;;;;;;;;4978543;28;20476;-77
2021/12/08 11:17:25;;;;;;;26.10;18.83;;;;;;;;;;4973274;28;20452;-78
2021/12/08 11:20:11;;;;;;;31.13;20.20;;;;;;;;;;4973113;28;20416;-77
2021/12/08 11:22:37;;;;;;;27.07;18.57;;;;;;;;;;4967846;28;20422;-77
2021/12/08 11:25:04;;;;;;;30.53;19.50;;;;;;;;;;4978558;28;20439;-78
2021/12/08 11:27:36;;;;;;;24.00;14.77;;;;;;;;;;4973339;28;20542;-78
2021/12/08 11:30:17;;;;;;;25.00;16.30;;;;;;;;;;4985405;28;20488;-78
2021/12/08 11:32:43;;;;;;;25.40;17.10;;;;;;;;;;4993085;28;20460;-78
2021/12/08 11:35:19;;;;;;;24.40;16.80;;;;;;;;;;4979389;28;20428;-78
2021/12/08 11:37:57;;;;;;;28.30;17.17;;;;;;;;;;4994465;28;20533;-78
2021/12/08 11:40:23;;;;;;;24.93;16.23;;;;;;;;;;4979040;28;20412;-78
2021/12/08 11:42:50;;;;;;;23.17;15.50;;;;;;;;;;4981401;28;20429;-78
2021/12/08 11:45:20;;;;;;;22.97;15.83;;;;;;;;;;4981726;28;20519;-78
2021/12/08 11:47:46;;;;;;;27.77;16.53;;;;;;;;;;4979632;28;20463;-78
2021/12/08 11:50:16;;;;;;;24.73;16.57;;;;;;;;;;4994442;28;20424;-77
2021/12/08 11:52:42;;;;;;;23.10;14.57;;;;;;;;;;4988955;28;20791;-78
2021/12/08 11:55:13;;;;;;;23.83;15.97;;;;;;;;;;4978696;28;21336;-77
2021/12/08 11:57:46;;;;;;;29.57;17.60;;;;;;;;;;4996577;28;20420;-79
2021/12/08 12:00:18;;;;;;;27.80;17.70;;;;;;;;;;4995822;28;20531;-79
2021/12/08 12:02:55;;;;;;;28.30;17.40;;;;;;;;;;4995023;28;20433;-79
2021/12/08 12:05:27;;;;;;;31.70;19.17;;;;;;;;;;4986048;28;20670;-80
2021/12/08 12:07:54;;;;;;;34.70;22.93;;;;;;;;;;4979540;28;21028;-80
2021/12/08 12:10:22;;;;;;;39.03;24.87;;;;;;;;;;4981091;28;20498;-80
2021/12/08 12:12:48;;;;;;;41.13;25.60;;;;;;;;;;5008676;28;20413;-80
2021/12/08 12:15:16;;;;;;;39.27;24.97;;;;;;;;;;4979963;28;20512;-80
2021/12/08 12:17:44;;;;;;;41.83;26.47;;;;;;;;;;4977968;28;20413;-80
2021/12/08 12:20:17;;;;;;;39.80;25.80;;;;;;;;;;4995312;28;21499;-80
2021/12/08 12:22:55;;;;;;;46.77;29.97;;;;;;;;;;4993620;28;20543;-80
2021/12/08 12:25:33;;;;;;;53.30;31.97;;;;;;;;;;4984735;28;20628;-80
2021/12/08 12:28:18;;;;;;;48.87;32.83;;;;;;;;;;4978366;28;20420;-80
2021/12/08 12:30:50;;;;;;;45.23;29.23;;;;;;;;;;4995076;28;21298;-80
2021/12/08 12:33:17;;;;;;;43.83;29.47;;;;;;;;;;4981384;28;20420;-80
2021/12/08 12:35:48;;;;;;;52.73;32.83;;;;;;;;;;4993657;28;20464;-79
2021/12/08 12:38:14;;;;;;;48.70;29.27;;;;;;;;;;5001038;28;20508;-79
2021/12/08 12:40:50;;;;;;;44.73;28.77;;;;;;;;;;4977422;28;20452;-78
2021/12/08 12:43:33;;;;;;;43.97;28.70;;;;;;;;;;4991121;28;20427;-79
2021/12/08 12:46:07;;;;;;;57.80;34.97;;;;;;;;;;4980234;28;20418;-78
2021/12/08 12:48:37;;;;;;;61.47;37.03;;;;;;;;;;4976837;28;20441;-79
2021/12/08 12:51:13;;;;;;;49.20;33.37;;;;;;;;;;4980589;28;21203;-79
2021/12/08 12:53:40;;;;;;;61.07;38.40;;;;;;;;;;4994011;28;20429;-80
2021/12/08 12:56:07;;;;;;;62.27;40.57;;;;;;;;;;4976533;28;20474;-79
2021/12/08 12:58:41;;;;;;;63.47;41.53;;;;;;;;;;4994723;28;20420;-79
2021/12/08 13:01:09;;;;;;;82.70;49.33;;;;;;;;;;4993781;28;21429;-81
2021/12/08 13:03:43;;;;;;;73.93;46.57;;;;;;;;;;4978846;28;21295;-79
2021/12/08 13:06:11;;;;;;;82.43;50.83;;;;;;;;;;5007466;28;20520;-79
2021/12/08 13:08:37;;;;;;;77.97;48.17;;;;;;;;;;4982293;28;21159;-79
2021/12/08 13:11:11;;;;;;;81.43;49.27;;;;;;;;;;4983942;28;20430;-79
2021/12/08 13:13:57;;;;;;;93.20;54.73;;;;;;;;;;5010790;28;20421;-81
2021/12/08 13:16:26;;;;;;;77.97;47.53;;;;;;;;;;4978248;28;20463;-81
2021/12/08 13:19:19;;;;;;;80.57;51.57;;;;;;;;;;5012368;28;20421;-80
2021/12/08 13:21:47;;;;;;;83.00;50.87;;;;;;;;;;4981499;28;21004;-80
2021/12/08 13:24:32;;;;;;;72.93;44.40;;;;;;;;;;4982733;28;20427;-80
2021/12/08 13:27:06;;;;;;;59.13;39.87;;;;;;;;;;4996749;28;20961;-79
2021/12/08 13:29:35;;;;;;;68.27;46.57;;;;;;;;;;4994374;28;20412;-80
2021/12/08 13:32:12;;;;;;;66.97;43.37;;;;;;;;;;4995998;28;20417;-79
2021/12/08 13:34:40;;;;;;;63.67;40.63;;;;;;;;;;4997217;28;20543;-80
2021/12/08 13:37:33;;;;;;;62.63;40.23;;;;;;;;;;4998269;28;20448;-83
2021/12/08 13:40:05;;;;;;;51.67;34.00;;;;;;;;;;4976882;28;20452;-80
2021/12/08 13:42:34;;;;;;;47.93;33.33;;;;;;;;;;4995840;28;20408;-79
2021/12/08 13:45:05;;;;;;;58.07;38.50;;;;;;;;;;4998738;28;21433;-79
2021/12/08 13:47:34;;;;;;;56.20;37.47;;;;;;;;;;4994965;28;20508;-80
2021/12/08 13:50:06;;;;;;;62.40;40.07;;;;;;;;;;4978356;28;20439;-79
2021/12/08 13:52:37;;;;;;;58.57;38.53;;;;;;;;;;4993342;28;20407;-79
2021/12/08 13:55:09;;;;;;;63.37;40.40;;;;;;;;;;5010431;28;21358;-79
2021/12/08 13:57:42;;;;;;;59.90;37.93;;;;;;;;;;5008762;28;20453;-79
2021/12/08 14:00:17;;;;;;;49.13;33.00;;;;;;;;;;4978767;28;20421;-79
2021/12/08 14:02:45;;;;;;;59.40;37.60;;;;;;;;;;4978583;28;20455;-80
2021/12/08 14:05:27;;;;;;;53.53;34.43;;;;;;;;;;5009320;28;20411;-82
2021/12/08 14:08:05;;;;;;;52.07;35.17;;;;;;;;;;4994039;28;20412;-84
2021/12/08 14:10:36;;;;;;;47.10;33.80;;;;;;;;;;4992254;28;20407;-78
2021/12/08 14:13:04;;;;;;;42.17;29.47;;;;;;;;;;4996013;28;20405;-78
2021/12/08 14:15:48;;;;;;;36.93;27.63;;;;;;;;;;4989436;28;20429;-79
2021/12/08 14:18:20;;;;;;;47.30;32.97;;;;;;;;;;4993942;28;20433;-78
2021/12/08 14:21:06;;;;;;;48.33;34.17;;;;;;;;;;4978893;28;21326;-78
2021/12/08 14:23:34;;;;;;;40.33;28.37;;;;;;;;;;4996775;28;21126;-80
2021/12/08 14:26:11;;;;;;;39.70;28.43;;;;;;;;;;4992307;28;20429;-81
2021/12/08 14:28:50;;;;;;;37.63;26.67;;;;;;;;;;4980153;28;20424;-79
2021/12/08 14:31:35;;;;;;;47.63;33.27;;;;;;;;;;4993609;28;20530;-80
2021/12/08 14:34:09;;;;;;;45.77;32.47;;;;;;;;;;5004748;28;20415;-80
2021/12/08 14:36:42;;;;;;;42.97;30.97;;;;;;;;;;5011084;28;20448;-80
2021/12/08 14:39:37;;;;;;;55.17;36.97;;;;;;;;;;5000979;28;20412;-81
2021/12/08 14:42:32;;;;;;;59.77;38.97;;;;;;;;;;4991404;28;20408;-81
2021/12/08 14:45:24;;;;;;;55.90;36.53;;;;;;;;;;4904281;29;20412;-80
2021/12/08 14:48:31;;;;;;;60.87;39.03;;;;;;;;;;4904596;29;21068;-84
2021/12/08 14:51:03;;;;;;;63.93;41.37;;;;;;;;;;4890181;28;20430;-80
2021/12/08 14:53:34;;;;;;;50.07;34.97;;;;;;;;;;4988619;28;20719;-78
2021/12/08 14:56:12;;;;;;;51.97;36.90;;;;;;;;;;4979380;28;20445;-79
2021/12/08 14:58:55;;;;;;;41.53;30.20;;;;;;;;;;4997350;28;21387;-80
2021/12/08 15:01:24;;;;;;;32.40;25.90;;;;;;;;;;4978798;28;20413;-78
2021/12/08 15:03:51;;;;;;;41.77;31.13;;;;;;;;;;5011558;28;20420;-78
2021/12/08 15:06:19;;;;;;;44.27;32.80;;;;;;;;;;4996966;28;21269;-78
2021/12/08 15:08:45;;;;;;;45.80;33.60;;;;;;;;;;4997202;28;20432;-78
2021/12/08 15:11:25;;;;;;;49.23;36.87;;;;;;;;;;4998998;28;20467;-78
2021/12/08 15:13:51;;;;;;;48.80;35.60;;;;;;;;;;4982138;28;21388;-78
2021/12/08 15:16:20;;;;;;;34.63;25.37;;;;;;;;;;4995199;28;20526;-78
2021/12/08 15:18:53;;;;;;;31.63;25.27;;;;;;;;;;4985401;28;21200;-78
2021/12/08 15:21:27;;;;;;;24.90;20.60;;;;;;;;;;4997576;28;20436;-79